Time;durP1;ratioP1;P1;durP2;ratioP2;P2;SDS_P1;SDS_P2;PMS_P1;PMS_P2;Temp;Humidity;BMP_temperature;BMP_pressure;BME280_temperature;BME280_humidity;BME280_pressure;Samples;Min_cycle;Max_cycle;Signal;HPM_P1;HPM_P2
2023/05/06 00:01:49;;;;;;;1.67;1.25;;;;;;;;;;4994637;28;20050;-59
2023/05/06 00:04:17;;;;;;;2.45;1.25;;;;;;;;;;4999738;28;20056;-59
2023/05/06 00:06:51;;;;;;;3.20;1.27;;;;;;;;;;4996792;28;20551;-58
2023/05/06 00:09:18;;;;;;;3.10;1.30;;;;;;;;;;4978281;28;20815;-59
2023/05/06 00:11:52;;;;;;;4.38;1.38;;;;;;;;;;4996293;28;20520;-61
2023/05/06 00:14:20;;;;;;;1.35;1.25;;;;;;;;;;4998719;28;20424;-62
2023/05/06 00:16:47;;;;;;;3.67;1.42;;;;;;;;;;4996664;28;20449;-58
2023/05/06 00:19:20;;;;;;;2.33;1.27;;;;;;;;;;4996972;28;20825;-60
2023/05/06 00:21:48;;;;;;;3.63;1.35;;;;;;;;;;4994609;28;20476;-60
2023/05/06 00:24:34;;;;;;;2.60;1.33;;;;;;;;;;4996483;28;20060;-60
2023/05/06 00:27:08;;;;;;;2.85;1.63;;;;;;;;;;4996703;28;20054;-61
2023/05/06 00:29:42;;;;;;;2.15;1.50;;;;;;;;;;4982949;28;20081;-73
2023/05/06 00:32:10;;;;;;;3.00;1.60;;;;;;;;;;4996699;28;20054;-60
2023/05/06 00:34:37;;;;;;;1.67;1.25;;;;;;;;;;4991573;28;20074;-63
2023/05/06 00:37:11;;;;;;;3.25;1.45;;;;;;;;;;4978158;28;20189;-62
2023/05/06 00:39:38;;;;;;;7.78;1.63;;;;;;;;;;4994712;28;20058;-62
2023/05/06 00:42:12;;;;;;;5.20;1.33;;;;;;;;;;4996514;28;20081;-58
2023/05/06 00:44:40;;;;;;;2.15;1.40;;;;;;;;;;4999411;28;20054;-60
2023/05/06 00:47:10;;;;;;;5.25;1.80;;;;;;;;;;4994281;28;20054;-58
2023/05/06 00:49:44;;;;;;;2.97;1.50;;;;;;;;;;4994309;28;20050;-66
2023/05/06 00:52:12;;;;;;;6.28;1.63;;;;;;;;;;4996492;28;20050;-65
2023/05/06 00:54:46;;;;;;;2.80;1.70;;;;;;;;;;4993633;28;20061;-66
2023/05/06 00:57:13;;;;;;;2.30;1.65;;;;;;;;;;4997077;28;20865;-66
2023/05/06 00:59:40;;;;;;;1.85;1.58;;;;;;;;;;4999623;28;20057;-73
2023/05/06 01:02:15;;;;;;;2.33;1.55;;;;;;;;;;4997147;28;20054;-63
2023/05/06 01:04:42;;;;;;;3.30;1.70;;;;;;;;;;4993557;28;20050;-60
2023/05/06 01:07:16;;;;;;;2.70;1.83;;;;;;;;;;4994651;28;20058;-62
2023/05/06 01:10:06;;;;;;;2.17;1.50;;;;;;;;;;4996111;28;20998;-60
2023/05/06 01:12:36;;;;;;;4.95;1.55;;;;;;;;;;4996442;28;20054;-57
2023/05/06 01:15:16;;;;;;;2.90;1.67;;;;;;;;;;4999092;28;20409;-55
2023/05/06 01:17:45;;;;;;;2.03;1.70;;;;;;;;;;5002610;28;20150;-72
2023/05/06 01:20:20;;;;;;;2.47;1.85;;;;;;;;;;4997179;28;20061;-71
2023/05/06 01:22:48;;;;;;;2.80;1.38;;;;;;;;;;4997779;28;20132;-71
2023/05/06 01:25:35;;;;;;;5.50;1.40;;;;;;;;;;4999273;28;20057;-72
2023/05/06 01:28:03;;;;;;;2.92;1.60;;;;;;;;;;4995652;28;20059;-49
2023/05/06 01:30:49;;;;;;;2.45;1.60;;;;;;;;;;4996058;28;20159;-56
2023/05/06 01:33:16;;;;;;;4.75;1.58;;;;;;;;;;4999945;28;20089;-53
2023/05/06 01:36:02;;;;;;;3.15;1.50;;;;;;;;;;5004101;28;20064;-52
2023/05/06 01:38:30;;;;;;;3.40;1.70;;;;;;;;;;5000040;28;20056;-51
2023/05/06 01:41:04;;;;;;;2.58;1.73;;;;;;;;;;4999007;28;20518;-53
2023/05/06 01:43:31;;;;;;;;;;;;;;;;;;5002787;28;20050;-52
2023/05/06 01:45:59;;;;;;;3.42;1.35;;;;;;;;;;5000653;28;20016;-71
2023/05/06 01:48:35;;;;;;;3.63;1.55;;;;;;;;;;4996928;28;20050;-71
2023/05/06 01:51:02;;;;;;;2.70;1.90;;;;;;;;;;5000891;28;20054;-72
2023/05/06 01:53:37;;;;;;;2.15;1.80;;;;;;;;;;5000276;28;20549;-72
2023/05/06 01:56:05;;;;;;;4.57;1.67;;;;;;;;;;4999861;28;20057;-47
2023/05/06 01:58:33;;;;;;;2.97;1.75;;;;;;;;;;5000158;28;20633;-70
2023/05/06 02:01:06;;;;;;;1.90;1.70;;;;;;;;;;4998859;28;20049;-71
2023/05/06 02:03:34;;;;;;;1.63;1.50;;;;;;;;;;5001137;28;20070;-70
2023/05/06 02:06:01;;;;;;;5.32;1.60;;;;;;;;;;4999871;28;20105;-71
2023/05/06 02:08:34;;;;;;;6.38;1.90;;;;;;;;;;4997962;28;20068;-70
2023/05/06 02:11:02;;;;;;;2.65;1.50;;;;;;;;;;5000807;28;21449;-70
2023/05/06 02:13:35;;;;;;;3.38;1.98;;;;;;;;;;5000680;28;20566;-49
2023/05/06 02:16:03;;;;;;;3.28;2.10;;;;;;;;;;4998472;28;20145;-51
2023/05/06 02:18:30;;;;;;;;;;;;;;;;;;4981276;28;20060;-49
2023/05/06 02:21:07;;;;;;;3.33;1.67;;;;;;;;;;4998540;28;19956;-48
2023/05/06 02:23:35;;;;;;;3.25;1.73;;;;;;;;;;4999369;28;20062;-64
2023/05/06 02:26:21;;;;;;;2.35;1.63;;;;;;;;;;5000780;28;20088;-51
2023/05/06 02:29:00;;;;;;;2.63;1.73;;;;;;;;;;4984131;28;20069;-48
2023/05/06 02:31:36;;;;;;;2.10;1.67;;;;;;;;;;4985225;28;20054;-50
2023/05/06 02:34:04;;;;;;;2.80;1.73;;;;;;;;;;4998624;28;20049;-47
2023/05/06 02:36:38;;;;;;;4.68;1.90;;;;;;;;;;4987245;28;20056;-49
2023/05/06 02:39:06;;;;;;;2.58;1.70;;;;;;;;;;4999065;28;20077;-52
2023/05/06 02:41:39;;;;;;;7.50;2.55;;;;;;;;;;4984753;28;20487;-59
2023/05/06 02:44:07;;;;;;;4.30;2.05;;;;;;;;;;4997742;28;20050;-58
2023/05/06 02:46:34;;;;;;;4.53;1.90;;;;;;;;;;4997897;28;20085;-59
2023/05/06 02:49:08;;;;;;;5.38;1.75;;;;;;;;;;4997570;28;20531;-60
2023/05/06 02:51:36;;;;;;;3.78;2.00;;;;;;;;;;5000082;28;20085;-48
2023/05/06 02:54:09;;;;;;;2.40;1.60;;;;;;;;;;4997620;28;20450;-72
2023/05/06 02:56:37;;;;;;;3.70;2.10;;;;;;;;;;4999032;28;20140;-62
2023/05/06 02:59:05;;;;;;;3.90;1.45;;;;;;;;;;4999484;28;20128;-62
2023/05/06 03:01:38;;;;;;;3.95;1.73;;;;;;;;;;4998536;28;20050;-59
2023/05/06 03:04:06;;;;;;;4.30;1.90;;;;;;;;;;4997817;28;20059;-59
2023/05/06 03:06:40;;;;;;;3.30;2.10;;;;;;;;;;4986948;28;20051;-61
2023/05/06 03:09:07;;;;;;;2.72;1.88;;;;;;;;;;5000655;28;20050;-61
2023/05/06 03:11:34;;;;;;;3.03;2.13;;;;;;;;;;4994933;28;20133;-58
2023/05/06 03:14:08;;;;;;;3.80;2.35;;;;;;;;;;5000430;28;20673;-71
2023/05/06 03:16:36;;;;;;;2.42;2.00;;;;;;;;;;4999372;28;20152;-70
2023/05/06 03:19:03;;;;;;;2.47;2.00;;;;;;;;;;4994897;28;20551;-70
2023/05/06 03:21:37;;;;;;;3.45;2.20;;;;;;;;;;4996429;28;20054;-70
2023/05/06 03:24:05;;;;;;;2.75;2.10;;;;;;;;;;5001625;28;20555;-70
2023/05/06 03:26:45;;;;;;;2.67;2.05;;;;;;;;;;4996728;28;20545;-70
2023/05/06 03:29:12;;;;;;;2.53;2.05;;;;;;;;;;4999606;28;20148;-47
2023/05/06 03:31:49;;;;;;;4.03;2.00;;;;;;;;;;4997615;28;20046;-51
2023/05/06 03:34:17;;;;;;;3.00;1.88;;;;;;;;;;4997756;28;20101;-50
2023/05/06 03:36:45;;;;;;;5.97;2.75;;;;;;;;;;4997501;28;20098;-49
2023/05/06 03:39:19;;;;;;;3.45;2.17;;;;;;;;;;4996804;28;20513;-49
2023/05/06 03:41:46;;;;;;;3.70;2.30;;;;;;;;;;4981525;28;20153;-54
2023/05/06 03:44:13;;;;;;;2.70;1.92;;;;;;;;;;4980904;28;20480;-49
2023/05/06 03:46:48;;;;;;;3.10;2.05;;;;;;;;;;4985884;28;20135;-49
2023/05/06 03:49:16;;;;;;;3.03;1.92;;;;;;;;;;4996931;28;20086;-47
2023/05/06 03:51:50;;;;;;;3.25;2.00;;;;;;;;;;4993561;28;20054;-49
2023/05/06 03:54:19;;;;;;;5.30;2.00;;;;;;;;;;4985915;28;20057;-52
2023/05/06 03:56:48;;;;;;;3.33;2.17;;;;;;;;;;4984007;28;20116;-61
2023/05/06 03:59:23;;;;;;;2.42;1.90;;;;;;;;;;5000953;28;20730;-59
2023/05/06 04:01:50;;;;;;;4.60;2.00;;;;;;;;;;4994058;28;20050;-60
2023/05/06 04:04:17;;;;;;;3.88;2.22;;;;;;;;;;4992944;28;20066;-59
2023/05/06 04:06:52;;;;;;;3.90;2.05;;;;;;;;;;4995950;28;20104;-54
2023/05/06 04:09:25;;;;;;;4.30;1.67;;;;;;;;;;5000379;28;20073;-55
2023/05/06 04:11:53;;;;;;;2.20;1.80;;;;;;;;;;5000433;28;20089;-63
2023/05/06 04:14:20;;;;;;;3.13;1.98;;;;;;;;;;4991580;28;20065;-63
2023/05/06 04:16:53;;;;;;;2.45;1.88;;;;;;;;;;4993716;28;20176;-63
2023/05/06 04:19:21;;;;;;;;;;;;;;;;;;4992884;28;20065;-63
2023/05/06 04:21:55;;;;;;;3.42;1.70;;;;;;;;;;4997214;28;19925;-62
2023/05/06 04:24:22;;;;;;;4.47;1.65;;;;;;;;;;4996883;28;20108;-64
2023/05/06 04:26:50;;;;;;;2.72;1.95;;;;;;;;;;4994541;28;20664;-54
2023/05/06 04:29:30;;;;;;;4.00;2.05;;;;;;;;;;4995918;28;20109;-55
2023/05/06 04:31:58;;;;;;;4.00;1.75;;;;;;;;;;4981060;28;20129;-55
2023/05/06 04:34:35;;;;;;;2.58;2.10;;;;;;;;;;4996040;28;20586;-52
2023/05/06 04:37:02;;;;;;;3.78;2.08;;;;;;;;;;4994592;28;20531;-57
2023/05/06 04:39:30;;;;;;;4.28;2.15;;;;;;;;;;4995831;28;20057;-70
2023/05/06 04:42:05;;;;;;;4.25;2.28;;;;;;;;;;4997790;28;20141;-70
2023/05/06 04:44:32;;;;;;;4.22;1.90;;;;;;;;;;4994977;28;20064;-69
2023/05/06 04:47:06;;;;;;;5.72;1.60;;;;;;;;;;4995306;28;20060;-69
2023/05/06 04:49:34;;;;;;;2.53;1.40;;;;;;;;;;4996119;28;20077;-69
2023/05/06 04:52:01;;;;;;;3.13;1.85;;;;;;;;;;4997184;28;20089;-69
2023/05/06 04:54:35;;;;;;;3.75;1.90;;;;;;;;;;4992091;28;20097;-61
2023/05/06 04:57:02;;;;;;;;;;;;;;;;;;4996873;28;20049;-62
2023/05/06 04:59:29;;;;;;;2.90;1.92;;;;;;;;;;4995515;28;20008;-61
2023/05/06 05:02:03;;;;;;;3.10;2.13;;;;;;;;;;4994613;28;20140;-61
2023/05/06 05:04:31;;;;;;;2.35;1.38;;;;;;;;;;4994185;28;20421;-62
2023/05/06 05:07:06;;;;;;;2.33;1.83;;;;;;;;;;4991671;28;20467;-53
2023/05/06 05:09:34;;;;;;;2.25;1.45;;;;;;;;;;4991739;28;20058;-53
2023/05/06 05:12:04;;;;;;;1.30;1.20;;;;;;;;;;4994933;28;20050;-48
2023/05/06 05:14:37;;;;;;;2.33;1.20;;;;;;;;;;4994119;28;20049;-51
2023/05/06 05:17:04;;;;;;;1.75;1.27;;;;;;;;;;4997183;28;20046;-53
2023/05/06 05:19:39;;;;;;;1.55;1.40;;;;;;;;;;4992445;28;20530;-49
2023/05/06 05:22:07;;;;;;;2.95;1.75;;;;;;;;;;4995003;28;20145;-46
2023/05/06 05:24:34;;;;;;;2.05;1.42;;;;;;;;;;4976594;28;20054;-47
2023/05/06 05:27:15;;;;;;;2.67;1.95;;;;;;;;;;4981875;28;20139;-48
2023/05/06 05:29:43;;;;;;;5.47;1.38;;;;;;;;;;4978595;28;20084;-48
2023/05/06 05:32:18;;;;;;;5.07;1.77;;;;;;;;;;4995569;28;20113;-51
2023/05/06 05:34:46;;;;;;;1.30;1.00;;;;;;;;;;4996324;28;20081;-52
2023/05/06 05:37:13;;;;;;;4.57;1.63;;;;;;;;;;4996519;28;20050;-70
2023/05/06 05:39:47;;;;;;;4.38;1.63;;;;;;;;;;4995613;28;20584;-71
2023/05/06 05:42:14;;;;;;;3.88;1.83;;;;;;;;;;4994109;28;20062;-71
2023/05/06 05:44:47;;;;;;;1.55;1.13;;;;;;;;;;4992171;28;20864;-71
2023/05/06 05:47:15;;;;;;;4.13;1.80;;;;;;;;;;4993459;28;20060;-70
2023/05/06 05:49:42;;;;;;;;;;;;;;;;;;4994556;28;20085;-71
2023/05/06 05:52:15;;;;;;;3.08;1.50;;;;;;;;;;4988895;28;20707;-57
2023/05/06 05:54:42;;;;;;;2.60;1.58;;;;;;;;;;4984101;28;20153;-53
2023/05/06 05:57:16;;;;;;;4.28;1.70;;;;;;;;;;4993752;28;20713;-56
2023/05/06 05:59:43;;;;;;;1.88;1.20;;;;;;;;;;4995063;28;20067;-53
2023/05/06 06:02:14;;;;;;;2.28;1.38;;;;;;;;;;4995295;28;20057;-54
2023/05/06 06:04:48;;;;;;;1.58;1.23;;;;;;;;;;4994286;28;20053;-63
2023/05/06 06:07:15;;;;;;;8.52;2.28;;;;;;;;;;4985435;28;20057;-62
2023/05/06 06:09:49;;;;;;;1.73;1.13;;;;;;;;;;4988094;28;20224;-63
2023/05/06 06:12:16;;;;;;;;;;;;;;;;;;4988112;28;20071;-63
2023/05/06 06:14:47;;;;;;;2.17;1.27;;;;;;;;;;4988759;28;19961;-62
2023/05/06 06:17:20;;;;;;;2.55;1.70;;;;;;;;;;4991465;28;20108;-63
2023/05/06 06:19:49;;;;;;;5.43;1.75;;;;;;;;;;4991897;28;20140;-56
2023/05/06 06:22:23;;;;;;;2.78;1.77;;;;;;;;;;4988958;28;20058;-63
2023/05/06 06:24:52;;;;;;;2.63;1.33;;;;;;;;;;4987235;28;20100;-63
2023/05/06 06:27:19;;;;;;;3.78;2.10;;;;;;;;;;4990627;28;20052;-62
2023/05/06 06:29:53;;;;;;;2.13;1.17;;;;;;;;;;4993740;28;20061;-62
2023/05/06 06:32:21;;;;;;;4.72;1.60;;;;;;;;;;4999573;28;20052;-63
2023/05/06 06:34:55;;;;;;;4.22;1.52;;;;;;;;;;4981267;28;20053;-63
2023/05/06 06:37:23;;;;;;;4.53;1.85;;;;;;;;;;4997034;28;20434;-50
2023/05/06 06:39:51;;;;;;;3.72;1.80;;;;;;;;;;4978961;28;20070;-63
2023/05/06 06:42:27;;;;;;;4.13;2.00;;;;;;;;;;4997300;28;20066;-69
2023/05/06 06:44:54;;;;;;;3.75;1.98;;;;;;;;;;5002019;28;20059;-69
2023/05/06 06:47:28;;;;;;;3.60;1.60;;;;;;;;;;4993407;28;20145;-69
2023/05/06 06:49:56;;;;;;;4.13;1.65;;;;;;;;;;4999223;28;20585;-69
2023/05/06 06:52:23;;;;;;;5.53;1.95;;;;;;;;;;4995676;28;20047;-69
2023/05/06 06:54:56;;;;;;;4.43;1.83;;;;;;;;;;4994785;28;20053;-69
2023/05/06 06:57:23;;;;;;;2.85;1.85;;;;;;;;;;4997910;28;20133;-56
2023/05/06 06:59:52;;;;;;;3.20;1.67;;;;;;;;;;4995336;28;20062;-58
2023/05/06 07:02:25;;;;;;;1.65;1.10;;;;;;;;;;4995989;28;20145;-58
2023/05/06 07:04:53;;;;;;;3.08;1.60;;;;;;;;;;4996393;28;20155;-58
2023/05/06 07:07:20;;;;;;;5.90;1.90;;;;;;;;;;4996777;28;20054;-66
2023/05/06 07:09:53;;;;;;;2.42;1.40;;;;;;;;;;4998465;28;20050;-57
2023/05/06 07:12:22;;;;;;;1.35;1.08;;;;;;;;;;4997218;28;20141;-56
2023/05/06 07:14:56;;;;;;;1.83;1.42;;;;;;;;;;4996687;28;20060;-54
2023/05/06 07:17:24;;;;;;;4.68;1.33;;;;;;;;;;4997110;28;20137;-58
2023/05/06 07:19:51;;;;;;;4.40;1.92;;;;;;;;;;4996143;28;20066;-56
2023/05/06 07:22:24;;;;;;;5.20;1.90;;;;;;;;;;4996994;28;20634;-58
2023/05/06 07:24:52;;;;;;;4.65;2.28;;;;;;;;;;5000383;28;20136;-57
2023/05/06 07:27:29;;;;;;;2.17;1.55;;;;;;;;;;4996878;28;20068;-54
2023/05/06 07:30:10;;;;;;;2.08;1.40;;;;;;;;;;4997869;28;20062;-56
2023/05/06 07:32:43;;;;;;;3.75;1.90;;;;;;;;;;4991173;28;20550;-55
2023/05/06 07:35:11;;;;;;;3.03;1.55;;;;;;;;;;4996908;28;20474;-53
2023/05/06 07:37:38;;;;;;;2.67;1.52;;;;;;;;;;4994629;28;20072;-47
2023/05/06 07:40:13;;;;;;;2.97;1.60;;;;;;;;;;4995695;28;20073;-49
2023/05/06 07:42:41;;;;;;;6.43;2.10;;;;;;;;;;4966535;28;20051;-47
2023/05/06 07:45:16;;;;;;;3.42;1.80;;;;;;;;;;4980572;28;20112;-52
2023/05/06 07:47:46;;;;;;;3.85;1.73;;;;;;;;;;4995433;28;20120;-50
2023/05/06 07:50:14;;;;;;;5.75;1.85;;;;;;;;;;4998497;28;20045;-50
2023/05/06 07:52:47;;;;;;;5.18;1.90;;;;;;;;;;4984871;28;20081;-51
2023/05/06 07:55:15;;;;;;;3.97;1.88;;;;;;;;;;5002626;28;20050;-56
2023/05/06 07:57:49;;;;;;;4.60;1.85;;;;;;;;;;4997709;28;20991;-49
2023/05/06 08:00:16;;;;;;;;;;;;;;;;;;4999208;28;20625;-51
2023/05/06 08:02:43;;;;;;;4.43;1.88;;;;;;;;;;4992528;28;19922;-61
2023/05/06 08:05:18;;;;;;;2.60;1.60;;;;;;;;;;4993724;28;20053;-61
2023/05/06 08:07:45;;;;;;;6.47;2.03;;;;;;;;;;4991523;28;20048;-57
2023/05/06 08:10:20;;;;;;;3.67;1.40;;;;;;;;;;4996900;28;20141;-48
2023/05/06 08:12:48;;;;;;;5.43;2.60;;;;;;;;;;4997460;28;20050;-48
2023/05/06 08:15:15;;;;;;;4.25;1.83;;;;;;;;;;4992342;28;20089;-51
2023/05/06 08:17:49;;;;;;;1.48;1.00;;;;;;;;;;4993167;28;20057;-50
2023/05/06 08:20:17;;;;;;;3.70;1.90;;;;;;;;;;4998924;28;20054;-49
2023/05/06 08:22:51;;;;;;;2.90;1.50;;;;;;;;;;4993062;28;20062;-62
2023/05/06 08:25:18;;;;;;;6.65;1.80;;;;;;;;;;4996035;28;20149;-62
2023/05/06 08:27:45;;;;;;;3.70;1.67;;;;;;;;;;4994848;28;20058;-62
2023/05/06 08:30:18;;;;;;;3.22;1.90;;;;;;;;;;4995393;28;20538;-62
2023/05/06 08:32:46;;;;;;;5.55;1.60;;;;;;;;;;4996102;28;20045;-63
2023/05/06 08:35:19;;;;;;;1.35;1.05;;;;;;;;;;4995636;28;20049;-57
2023/05/06 08:37:47;;;;;;;3.88;1.70;;;;;;;;;;4997060;28;20129;-57
2023/05/06 08:40:18;;;;;;;2.00;1.20;;;;;;;;;;4997443;28;20145;-54
2023/05/06 08:42:55;;;;;;;3.92;1.65;;;;;;;;;;4997119;28;20061;-57
2023/05/06 08:45:22;;;;;;;4.05;1.63;;;;;;;;;;4997582;28;20089;-58
2023/05/06 08:47:57;;;;;;;3.80;1.63;;;;;;;;;;4996845;28;20810;-57
2023/05/06 08:50:24;;;;;;;3.58;1.73;;;;;;;;;;4995115;28;20061;-67
2023/05/06 08:52:52;;;;;;;3.25;1.70;;;;;;;;;;4996840;28;20089;-66
2023/05/06 08:55:26;;;;;;;2.10;1.55;;;;;;;;;;4991556;28;20061;-67
2023/05/06 08:57:53;;;;;;;;;;;;;;;;;;4994674;28;20161;-66
2023/05/06 09:00:26;;;;;;;2.70;1.40;;;;;;;;;;4992943;28;19922;-67
2023/05/06 09:02:54;;;;;;;7.07;1.60;;;;;;;;;;4996534;28;20104;-49
2023/05/06 09:05:21;;;;;;;4.88;1.48;;;;;;;;;;4999490;28;20054;-52
2023/05/06 09:07:54;;;;;;;2.30;1.67;;;;;;;;;;4998619;28;20132;-49
2023/05/06 09:10:22;;;;;;;2.38;1.50;;;;;;;;;;4997136;28;20148;-55
2023/05/06 09:13:02;;;;;;;2.60;1.50;;;;;;;;;;4996394;28;20637;-50
2023/05/06 09:15:38;;;;;;;5.97;2.10;;;;;;;;;;4989488;28;20539;-47
2023/05/06 09:18:19;;;;;;;4.35;1.90;;;;;;;;;;4995299;28;20053;-62
2023/05/06 09:20:47;;;;;;;4.47;1.65;;;;;;;;;;4994256;28;20050;-63
2023/05/06 09:23:21;;;;;;;2.15;1.48;;;;;;;;;;4994971;28;20489;-62
2023/05/06 09:25:56;;;;;;;2.75;1.55;;;;;;;;;;4996515;28;20057;-62
2023/05/06 09:28:38;;;;;;;2.90;1.80;;;;;;;;;;4995453;28;20051;-62
2023/05/06 09:31:06;;;;;;;4.45;2.00;;;;;;;;;;4997169;28;20621;-52
2023/05/06 09:33:40;;;;;;;2.67;1.50;;;;;;;;;;4988533;28;20062;-56
2023/05/06 09:36:09;;;;;;;;;;;;;;;;;;4996567;28;20081;-51
2023/05/06 09:38:36;;;;;;;;;;;;;;;;;;4998594;28;20330;-56
2023/05/06 09:41:12;;;;;;;6.03;1.77;;;;;;;;;;4992391;28;20600;-55
2023/05/06 09:43:43;;;;;;;6.03;1.70;;;;;;;;;;4995433;28;20497;-55
2023/05/06 09:46:16;;;;;;;3.88;1.73;;;;;;;;;;4999072;28;20048;-62
2023/05/06 09:48:45;;;;;;;2.67;1.52;;;;;;;;;;4999818;28;20054;-68
2023/05/06 09:51:12;;;;;;;3.58;1.30;;;;;;;;;;4995085;28;20050;-51
2023/05/06 09:53:47;;;;;;;5.13;1.60;;;;;;;;;;4998078;28;20045;-50
2023/05/06 09:56:15;;;;;;;3.45;1.60;;;;;;;;;;4997718;28;20062;-52
2023/05/06 09:58:50;;;;;;;4.85;2.03;;;;;;;;;;4996331;28;20173;-54
2023/05/06 10:01:17;;;;;;;4.43;1.67;;;;;;;;;;4997066;28;20583;-53
2023/05/06 10:04:03;;;;;;;2.80;1.38;;;;;;;;;;4996214;28;20089;-53
2023/05/06 10:06:41;;;;;;;3.00;1.55;;;;;;;;;;4997814;28;20116;-62
2023/05/06 10:09:09;;;;;;;2.78;1.50;;;;;;;;;;5000031;28;20060;-62
2023/05/06 10:11:44;;;;;;;3.00;1.30;;;;;;;;;;4996075;28;20156;-62
2023/05/06 10:14:11;;;;;;;5.55;1.80;;;;;;;;;;4995734;28;20043;-63
2023/05/06 10:16:39;;;;;;;4.47;1.75;;;;;;;;;;4999983;28;20119;-55
2023/05/06 10:19:14;;;;;;;3.60;1.88;;;;;;;;;;4999336;28;20125;-50
2023/05/06 10:21:43;;;;;;;4.10;1.67;;;;;;;;;;4995471;28;20153;-50
2023/05/06 10:24:11;;;;;;;3.35;1.75;;;;;;;;;;4998052;28;20128;-51
2023/05/06 10:26:58;;;;;;;1.77;1.30;;;;;;;;;;4991891;28;20085;-53
2023/05/06 10:29:35;;;;;;;2.50;1.50;;;;;;;;;;4978306;28;20219;-50
2023/05/06 10:32:09;;;;;;;3.13;1.80;;;;;;;;;;4992821;28;20058;-50
2023/05/06 10:34:40;;;;;;;2.30;1.58;;;;;;;;;;4998633;28;20140;-50
2023/05/06 10:37:14;;;;;;;2.80;1.33;;;;;;;;;;4992833;28;20137;-48
2023/05/06 10:39:41;;;;;;;2.40;1.52;;;;;;;;;;4991121;28;20060;-48
2023/05/06 10:42:17;;;;;;;7.78;1.70;;;;;;;;;;4989009;28;20054;-52
2023/05/06 10:44:57;;;;;;;3.70;1.83;;;;;;;;;;4996502;28;20047;-52
2023/05/06 10:47:49;;;;;;;6.88;1.80;;;;;;;;;;4990553;28;20835;-69
2023/05/06 10:50:23;;;;;;;2.83;1.60;;;;;;;;;;4992114;28;20053;-68
2023/05/06 10:52:58;;;;;;;3.55;1.40;;;;;;;;;;4995069;28;20747;-68
2023/05/06 10:55:33;;;;;;;4.45;1.52;;;;;;;;;;5000006;28;20102;-69
2023/05/06 10:58:13;;;;;;;2.60;1.23;;;;;;;;;;4999177;28;20462;-69
2023/05/06 11:00:41;;;;;;;4.15;1.90;;;;;;;;;;4993818;28;20184;-69
2023/05/06 11:03:17;;;;;;;4.28;1.80;;;;;;;;;;4998762;28;20061;-52
2023/05/06 11:05:50;;;;;;;2.83;1.80;;;;;;;;;;4993862;28;20113;-53
2023/05/06 11:08:25;;;;;;;2.08;1.35;;;;;;;;;;4995843;28;20052;-54
2023/05/06 11:10:53;;;;;;;3.28;1.73;;;;;;;;;;4997192;28;20062;-57
2023/05/06 11:13:20;;;;;;;;;;;;;;;;;;4997680;28;20078;-63
2023/05/06 11:15:55;;;;;;;5.20;1.63;;;;;;;;;;4997870;28;20015;-55
2023/05/06 11:18:26;;;;;;;4.13;1.58;;;;;;;;;;4976628;28;20058;-55
2023/05/06 11:21:00;;;;;;;2.78;1.80;;;;;;;;;;4980645;28;20049;-55
2023/05/06 11:23:27;;;;;;;;;;;;;;;;;;4980659;28;20112;-56
2023/05/06 11:26:01;;;;;;;4.18;1.80;;;;;;;;;;4998542;28;19929;-54
2023/05/06 11:28:34;;;;;;;3.13;1.80;;;;;;;;;;4999021;28;20144;-56
2023/05/06 11:31:10;;;;;;;5.00;1.60;;;;;;;;;;4991640;28;20049;-64
2023/05/06 11:33:44;;;;;;;3.40;1.30;;;;;;;;;;4989161;28;20050;-64
2023/05/06 11:36:18;;;;;;;3.25;1.42;;;;;;;;;;4990866;28;20204;-64
2023/05/06 11:38:53;;;;;;;1.85;1.30;;;;;;;;;;4992957;28;20876;-63
2023/05/06 11:41:29;;;;;;;3.63;1.30;;;;;;;;;;4993917;28;20053;-53
2023/05/06 11:44:02;;;;;;;5.55;1.52;;;;;;;;;;4982168;28;20129;-62
2023/05/06 11:46:32;;;;;;;2.92;1.52;;;;;;;;;;4995446;28;20523;-62
2023/05/06 11:48:59;;;;;;;4.68;1.90;;;;;;;;;;4987957;28;20133;-62
2023/05/06 11:51:33;;;;;;;3.55;1.58;;;;;;;;;;4991004;28;20073;-62
2023/05/06 11:54:04;;;;;;;4.60;1.60;;;;;;;;;;4989330;28;20045;-62
2023/05/06 11:56:41;;;;;;;2.20;1.50;;;;;;;;;;4993397;28;20549;-61
2023/05/06 11:59:15;;;;;;;5.97;1.70;;;;;;;;;;4994231;28;20050;-62
2023/05/06 12:01:42;;;;;;;2.78;1.10;;;;;;;;;;4995030;28;20058;-62
2023/05/06 12:04:10;;;;;;;1.77;1.42;;;;;;;;;;4998428;28;20744;-62
2023/05/06 12:06:44;;;;;;;2.50;1.45;;;;;;;;;;4992635;28;20058;-61
2023/05/06 12:09:11;;;;;;;2.65;1.38;;;;;;;;;;4994123;28;20887;-61
2023/05/06 12:11:40;;;;;;;3.08;1.70;;;;;;;;;;4993237;28;20054;-56
2023/05/06 12:14:14;;;;;;;3.75;1.50;;;;;;;;;;4990885;28;21024;-58
2023/05/06 12:16:41;;;;;;;3.90;1.48;;;;;;;;;;4996811;28;20050;-57
2023/05/06 12:19:16;;;;;;;3.67;1.65;;;;;;;;;;4991091;28;20050;-54
2023/05/06 12:21:43;;;;;;;2.20;1.92;;;;;;;;;;4992988;28;20077;-57
2023/05/06 12:24:11;;;;;;;2.80;1.65;;;;;;;;;;4988423;28;20061;-55
2023/05/06 12:26:54;;;;;;;2.95;1.50;;;;;;;;;;4993070;28;20063;-62
2023/05/06 12:29:21;;;;;;;2.33;1.55;;;;;;;;;;4994252;28;20058;-62
2023/05/06 12:32:08;;;;;;;3.42;1.55;;;;;;;;;;4995301;28;20512;-61
2023/05/06 12:34:39;;;;;;;5.10;1.90;;;;;;;;;;4993373;28;20053;-62
2023/05/06 12:37:23;;;;;;;2.53;1.37;;;;;;;;;;4987612;28;20053;-58
2023/05/06 12:39:50;;;;;;;3.97;1.25;;;;;;;;;;4996383;28;20068;-58
2023/05/06 12:42:25;;;;;;;4.43;1.48;;;;;;;;;;4991090;28;20105;-55
2023/05/06 12:44:53;;;;;;;10.85;8.45;;;;;;;;;;4991022;28;20141;-55
2023/05/06 12:47:27;;;;;;;1.80;1.30;;;;;;;;;;4986587;28;20176;-54
2023/05/06 12:49:56;;;;;;;3.60;1.55;;;;;;;;;;4984726;28;20055;-55
2023/05/06 12:52:27;;;;;;;3.38;1.48;;;;;;;;;;4983950;28;20132;-54
2023/05/06 12:55:01;;;;;;;1.60;1.30;;;;;;;;;;4980731;28;20077;-54
2023/05/06 12:57:28;;;;;;;4.03;1.50;;;;;;;;;;4994639;28;20663;-62
2023/05/06 13:00:01;;;;;;;3.70;1.40;;;;;;;;;;4991481;28;20140;-62
2023/05/06 13:02:29;;;;;;;6.00;1.65;;;;;;;;;;4989289;28;20483;-62
2023/05/06 13:04:56;;;;;;;1.58;1.20;;;;;;;;;;4992193;28;20065;-61
2023/05/06 13:07:30;;;;;;;3.22;1.10;;;;;;;;;;4995252;28;20072;-56
2023/05/06 13:09:57;;;;;;;1.98;1.30;;;;;;;;;;4988849;28;20166;-61
2023/05/06 13:12:24;;;;;;;4.90;1.92;;;;;;;;;;4995424;28;20064;-61
2023/05/06 13:14:58;;;;;;;2.47;1.50;;;;;;;;;;4998232;28;20046;-61
2023/05/06 13:17:25;;;;;;;2.67;1.48;;;;;;;;;;4998785;28;20093;-61
2023/05/06 13:19:52;;;;;;;4.35;1.60;;;;;;;;;;5002326;28;20046;-62
2023/05/06 13:22:28;;;;;;;2.85;1.40;;;;;;;;;;4993838;28;20527;-62
2023/05/06 13:24:56;;;;;;;3.75;1.67;;;;;;;;;;4999873;28;20050;-51
2023/05/06 13:27:42;;;;;;;3.38;1.58;;;;;;;;;;4999443;28;20054;-65
2023/05/06 13:30:16;;;;;;;2.20;1.30;;;;;;;;;;5002079;28;20672;-65
2023/05/06 13:32:51;;;;;;;5.38;1.52;;;;;;;;;;4995401;28;20560;-64
2023/05/06 13:35:18;;;;;;;2.47;1.30;;;;;;;;;;5001257;28;20057;-64
2023/05/06 13:37:45;;;;;;;2.97;1.33;;;;;;;;;;4998791;28;20507;-64
2023/05/06 13:40:19;;;;;;;3.10;1.58;;;;;;;;;;4993682;28;20519;-64
2023/05/06 13:42:46;;;;;;;2.03;1.13;;;;;;;;;;4998396;28;20482;-64
2023/05/06 13:45:20;;;;;;;3.35;1.40;;;;;;;;;;4998195;28;20064;-65
2023/05/06 13:47:47;;;;;;;4.40;1.73;;;;;;;;;;4999128;28;20173;-65
2023/05/06 13:50:14;;;;;;;6.95;1.50;;;;;;;;;;5000544;28;20057;-65
2023/05/06 13:52:48;;;;;;;3.80;1.25;;;;;;;;;;5002097;28;20056;-70
2023/05/06 13:55:16;;;;;;;3.65;1.63;;;;;;;;;;5001939;28;20128;-55
2023/05/06 13:57:50;;;;;;;2.67;1.45;;;;;;;;;;4997348;28;20045;-50
2023/05/06 14:00:17;;;;;;;3.63;1.73;;;;;;;;;;5000803;28;20053;-51
2023/05/06 14:02:44;;;;;;;2.65;1.13;;;;;;;;;;4986668;28;20060;-52
2023/05/06 14:05:18;;;;;;;4.35;1.38;;;;;;;;;;4994986;28;20066;-51
2023/05/06 14:07:46;;;;;;;3.70;1.48;;;;;;;;;;4998633;28;20137;-52
2023/05/06 14:10:20;;;;;;;6.95;1.95;;;;;;;;;;4996669;28;20112;-54
2023/05/06 14:12:47;;;;;;;3.72;1.20;;;;;;;;;;4996416;28;20137;-69
2023/05/06 14:15:15;;;;;;;3.97;1.13;;;;;;;;;;4996521;28;20523;-69
2023/05/06 14:17:49;;;;;;;1.95;1.08;;;;;;;;;;4996102;28;20164;-69
2023/05/06 14:20:23;;;;;;;3.63;1.52;;;;;;;;;;4999788;28;20058;-69
2023/05/06 14:22:50;;;;;;;3.72;1.70;;;;;;;;;;5001395;28;20092;-56
2023/05/06 14:25:17;;;;;;;3.50;1.45;;;;;;;;;;4999911;28;20050;-69
2023/05/06 14:27:57;;;;;;;6.60;1.40;;;;;;;;;;4981054;28;20066;-69
2023/05/06 14:30:24;;;;;;;2.97;1.30;;;;;;;;;;4995279;28;20058;-69
2023/05/06 14:32:58;;;;;;;2.05;1.13;;;;;;;;;;4996452;28;20053;-69
2023/05/06 14:35:26;;;;;;;3.20;1.40;;;;;;;;;;4998262;28;20515;-70
2023/05/06 14:37:53;;;;;;;3.08;1.27;;;;;;;;;;4996495;28;20145;-69
2023/05/06 14:40:27;;;;;;;2.05;1.30;;;;;;;;;;4996563;28;20740;-65
2023/05/06 14:42:54;;;;;;;4.35;1.45;;;;;;;;;;4998669;28;20042;-64
2023/05/06 14:45:21;;;;;;;2.85;1.30;;;;;;;;;;4999426;28;20057;-65
2023/05/06 14:47:55;;;;;;;2.28;1.30;;;;;;;;;;4999364;28;20120;-65
2023/05/06 14:50:22;;;;;;;1.38;1.00;;;;;;;;;;4996472;28;20145;-65
2023/05/06 14:52:55;;;;;;;3.55;1.40;;;;;;;;;;4999469;28;20187;-53
2023/05/06 14:55:23;;;;;;;2.58;0.98;;;;;;;;;;4993571;28;20060;-54
2023/05/06 14:57:50;;;;;;;3.15;1.33;;;;;;;;;;4997739;28;20434;-54
2023/05/06 15:00:23;;;;;;;3.55;1.40;;;;;;;;;;4992531;28;20510;-53
2023/05/06 15:02:51;;;;;;;6.05;1.33;;;;;;;;;;4998288;28;20198;-56
2023/05/06 15:05:25;;;;;;;2.92;1.40;;;;;;;;;;4994129;28;20050;-53
2023/05/06 15:07:52;;;;;;;1.98;1.20;;;;;;;;;;4995941;28;20144;-67
2023/05/06 15:10:19;;;;;;;3.30;1.20;;;;;;;;;;4999255;28;20046;-68